createdAt,value
2022-08-24T00:14:18.520Z,2137.09155
2022-08-24T00:29:20.752Z,1482.65967
2022-08-24T00:44:22.939Z,873.77441
2022-08-24T00:59:25.165Z,662.82202
2022-08-24T01:14:27.393Z,586.11206
2022-08-24T01:29:29.577Z,605.28955
2022-08-24T01:44:33.206Z,447.07526
2022-08-24T01:59:35.468Z,275.67642
2022-08-24T02:14:37.692Z,198.96646
2022-08-24T02:29:40.048Z,110.27057
2022-08-24T02:44:42.343Z,52.7381
2022-08-24T02:59:44.556Z,15.58171
2022-08-24T03:14:46.750Z,1.19859
2022-08-24T03:29:48.912Z,0
2022-08-24T03:44:52.319Z,0
2022-08-24T03:59:54.516Z,0
2022-08-24T04:14:56.728Z,0
2022-08-24T04:29:58.968Z,0
2022-08-24T04:45:01.230Z,0
2022-08-24T05:00:03.541Z,0
2022-08-24T05:15:05.703Z,0
2022-08-24T05:30:07.914Z,0
2022-08-24T05:45:10.126Z,0
2022-08-24T06:00:12.339Z,0
2022-08-24T06:15:14.512Z,0
2022-08-24T06:30:16.754Z,0
2022-08-24T06:45:18.944Z,0
2022-08-24T07:00:21.129Z,0
2022-08-24T07:15:23.367Z,0
2022-08-24T07:30:27.270Z,0
2022-08-24T07:45:30.375Z,0
2022-08-24T08:00:32.624Z,0
2022-08-24T08:15:34.948Z,0
2022-08-24T08:30:38.264Z,0
2022-08-24T08:45:40.641Z,0
2022-08-24T09:00:42.908Z,0
2022-08-24T09:15:45.143Z,0
2022-08-24T09:30:47.723Z,0
2022-08-24T09:45:52.068Z,0
2022-08-24T10:00:54.779Z,0
2022-08-24T10:15:59.257Z,0
2022-08-24T10:31:01.496Z,0
2022-08-24T10:46:03.909Z,0
2022-08-24T11:01:06.197Z,0
2022-08-24T11:16:08.717Z,0
2022-08-24T11:31:11.013Z,0
2022-08-24T11:46:13.342Z,0
2022-08-24T12:01:15.617Z,0
2022-08-24T12:16:17.862Z,0
2022-08-24T12:31:20.169Z,2.39719
2022-08-24T12:46:22.463Z,19.17749
2022-08-24T13:01:26.961Z,82.70293
2022-08-24T13:16:32.158Z,192.9735
2022-08-24T13:31:34.513Z,334.4075
2022-08-24T13:46:37.167Z,502.21054
2022-08-24T14:01:39.712Z,10172.45996
2022-08-24T14:16:42.002Z,1447.90051
2022-08-24T14:31:45.870Z,3787.55444
2022-08-24T14:46:48.370Z,2090.34644
2022-08-24T15:01:50.665Z,2636.90503
2022-08-24T15:16:53.295Z,2472.69775
2022-08-24T15:31:56.309Z,2744.77832
2022-08-24T15:46:58.579Z,3030.04346
2022-08-24T16:02:00.756Z,3211.03101
2022-08-24T16:17:03.049Z,3714.44019
2022-08-24T16:32:05.518Z,4024.87573
2022-08-24T16:47:07.859Z,3774.36987
2022-08-24T17:02:10.124Z,3833.10083
2022-08-24T17:17:12.455Z,3683.27661
2022-08-24T17:32:14.880Z,3527.45972
2022-08-24T17:47:17.140Z,3290.13818
2022-08-24T18:02:19.409Z,2611.73438
2022-08-24T18:17:22.793Z,3529.85669
2022-08-24T18:32:30.984Z,1457.48926
2022-08-24T18:47:34.303Z,1127.8761
2022-08-24T19:02:36.797Z,1251.3313
2022-08-24T19:17:39.253Z,1277.70032
2022-08-24T19:32:41.473Z,1178.21704
2022-08-24T19:47:43.689Z,1200.99036
2022-08-24T20:02:46.047Z,1842.23767
2022-08-24T20:17:48.343Z,1728.37134
2022-08-24T20:32:50.531Z,2427.15112
2022-08-24T20:47:52.734Z,3254.18042
2022-08-24T21:02:54.984Z,4763.20898
2022-08-24T21:17:57.231Z,2647.69214
2022-08-24T21:32:59.515Z,2054.38867
2022-08-24T21:48:01.945Z,1651.66138
2022-08-24T22:03:04.515Z,1646.86694
2022-08-24T22:18:07.093Z,1728.37134
2022-08-24T22:33:09.362Z,3443.55811
2022-08-24T22:48:11.766Z,3873.85303
2022-08-24T23:03:14.342Z,5281.00146
2022-08-24T23:18:16.673Z,6513.15527
2022-08-24T23:33:18.873Z,6786.43457
2022-08-24T23:48:22.105Z,3442.35962
